sensor_id;sensor_type;location;lat;lon;timestamp;pressure;altitude;pressure_sealevel;temperature;humidity
52591;BME280;38483;42.620;25.394;2023-02-05T00:01:27;96779.88;;;2.88;74.89
52591;BME280;38483;42.620;25.394;2023-02-05T00:03:54;96784.97;;;2.89;74.38
52591;BME280;38483;42.620;25.394;2023-02-05T00:06:22;96713.44;;;2.43;74.14
52591;BME280;38483;42.620;25.394;2023-02-05T00:08:48;96801.31;;;2.82;73.54
52591;BME280;38483;42.620;25.394;2023-02-05T00:11:16;96810.09;;;2.69;73.27
52591;BME280;38483;42.620;25.394;2023-02-05T00:13:43;96808.38;;;2.70;72.68
52591;BME280;38483;42.620;25.394;2023-02-05T00:16:16;96794.78;;;2.68;72.63
52591;BME280;38483;42.620;25.394;2023-02-05T00:18:44;96821.84;;;2.78;71.75
52591;BME280;38483;42.620;25.394;2023-02-05T00:21:12;96820.00;;;2.86;72.72
52591;BME280;38483;42.620;25.394;2023-02-05T00:23:40;96835.13;;;2.95;73.09
52591;BME280;38483;42.620;25.394;2023-02-05T00:26:07;96844.34;;;3.05;73.02
52591;BME280;38483;42.620;25.394;2023-02-05T00:28:36;96822.63;;;2.81;71.66
52591;BME280;38483;42.620;25.394;2023-02-05T00:31:12;96849.75;;;2.90;72.56
52591;BME280;38483;42.620;25.394;2023-02-05T00:33:40;96843.31;;;2.69;73.18
52591;BME280;38483;42.620;25.394;2023-02-05T00:36:08;96839.34;;;2.53;73.42
52591;BME280;38483;42.620;25.394;2023-02-05T00:38:38;96865.81;;;2.51;74.70
52591;BME280;38483;42.620;25.394;2023-02-05T00:41:05;96863.28;;;2.47;74.26
52591;BME280;38483;42.620;25.394;2023-02-05T00:43:32;96877.00;;;2.42;74.57
52591;BME280;38483;42.620;25.394;2023-02-05T00:45:59;96878.88;;;2.31;74.80
52591;BME280;38483;42.620;25.394;2023-02-05T00:48:26;96878.25;;;2.20;75.67
52591;BME280;38483;42.620;25.394;2023-02-05T00:50:53;96869.78;;;2.15;75.64
52591;BME280;38483;42.620;25.394;2023-02-05T00:53:21;96894.44;;;2.17;74.02
52591;BME280;38483;42.620;25.394;2023-02-05T00:55:48;96876.78;;;2.02;74.48
52591;BME280;38483;42.620;25.394;2023-02-05T00:58:16;96883.47;;;2.11;75.33
52591;BME280;38483;42.620;25.394;2023-02-05T01:00:43;96886.06;;;2.09;72.87
52591;BME280;38483;42.620;25.394;2023-02-05T01:03:11;96887.00;;;2.02;73.76
52591;BME280;38483;42.620;25.394;2023-02-05T01:05:39;96883.47;;;2.11;73.96
52591;BME280;38483;42.620;25.394;2023-02-05T01:08:11;96892.84;;;2.10;74.10
52591;BME280;38483;42.620;25.394;2023-02-05T01:10:42;96893.66;;;2.14;76.21
52591;BME280;38483;42.620;25.394;2023-02-05T01:13:10;96894.41;;;2.19;76.92
52591;BME280;38483;42.620;25.394;2023-02-05T01:15:37;96875.06;;;2.06;78.50
52591;BME280;38483;42.620;25.394;2023-02-05T01:18:04;96896.97;;;2.20;78.72
52591;BME280;38483;42.620;25.394;2023-02-05T01:20:31;96904.78;;;2.10;77.99
52591;BME280;38483;42.620;25.394;2023-02-05T01:22:57;96901.50;;;2.00;79.03
52591;BME280;38483;42.620;25.394;2023-02-05T01:25:25;96911.75;;;1.99;78.84
52591;BME280;38483;42.620;25.394;2023-02-05T01:27:51;96911.06;;;1.88;79.42
52591;BME280;38483;42.620;25.394;2023-02-05T01:30:18;96918.66;;;1.94;78.79
52591;BME280;38483;42.620;25.394;2023-02-05T01:32:46;96913.44;;;2.01;77.71
52591;BME280;38483;42.620;25.394;2023-02-05T01:35:13;96905.28;;;1.77;76.35
52591;BME280;38483;42.620;25.394;2023-02-05T01:37:40;96907.84;;;1.75;76.10
52591;BME280;38483;42.620;25.394;2023-02-05T01:40:09;96921.44;;;1.76;74.90
52591;BME280;38483;42.620;25.394;2023-02-05T01:42:39;96913.72;;;1.80;74.29
52591;BME280;38483;42.620;25.394;2023-02-05T01:47:56;96928.09;;;1.86;72.86
52591;BME280;38483;42.620;25.394;2023-02-05T01:50:34;96929.00;;;1.82;71.95
52591;BME280;38483;42.620;25.394;2023-02-05T01:53:15;96944.25;;;1.89;73.16
52591;BME280;38483;42.620;25.394;2023-02-05T01:55:58;96930.69;;;1.84;73.78
52591;BME280;38483;42.620;25.394;2023-02-05T01:58:30;96931.72;;;1.70;73.56
52591;BME280;38483;42.620;25.394;2023-02-05T02:00:58;96955.66;;;1.62;71.80
52591;BME280;38483;42.620;25.394;2023-02-05T02:03:27;96957.38;;;1.60;74.02
52591;BME280;38483;42.620;25.394;2023-02-05T02:05:54;96949.94;;;1.44;72.90
52591;BME280;38483;42.620;25.394;2023-02-05T02:08:22;96948.06;;;1.56;73.21
52591;BME280;38483;42.620;25.394;2023-02-05T02:10:50;96949.66;;;1.67;73.31
52591;BME280;38483;42.620;25.394;2023-02-05T02:13:19;96948.75;;;1.67;72.42
52591;BME280;38483;42.620;25.394;2023-02-05T02:15:49;96941.94;;;1.70;73.19
52591;BME280;38483;42.620;25.394;2023-02-05T02:18:18;96945.34;;;1.70;71.22
52591;BME280;38483;42.620;25.394;2023-02-05T02:29:16;96960.63;;;1.72;70.57
52591;BME280;38483;42.620;25.394;2023-02-05T02:32:01;96965.69;;;1.76;70.83
52591;BME280;38483;42.620;25.394;2023-02-05T02:34:46;96963.19;;;1.70;72.08
52591;BME280;38483;42.620;25.394;2023-02-05T02:37:24;96955.59;;;1.65;73.20
52591;BME280;38483;42.620;25.394;2023-02-05T02:40:03;96973.44;;;1.69;74.62
52591;BME280;38483;42.620;25.394;2023-02-05T02:42:48;96962.50;;;1.57;75.94
52591;BME280;38483;42.620;25.394;2023-02-05T02:45:20;96973.63;;;1.52;77.17
52591;BME280;38483;42.620;25.394;2023-02-05T02:47:52;96972.00;;;1.45;77.53
52591;BME280;38483;42.620;25.394;2023-02-05T02:50:25;96970.22;;;1.51;78.01
52591;BME280;38483;42.620;25.394;2023-02-05T02:53:11;96968.63;;;1.43;76.51
52591;BME280;38483;42.620;25.394;2023-02-05T02:55:42;96971.38;;;1.26;77.80
52591;BME280;38483;42.620;25.394;2023-02-05T02:58:15;96984.09;;;1.29;76.48
52591;BME280;38483;42.620;25.394;2023-02-05T03:00:45;96976.50;;;1.23;75.93
52591;BME280;38483;42.620;25.394;2023-02-05T03:03:16;96993.53;;;1.21;76.80
52591;BME280;38483;42.620;25.394;2023-02-05T03:05:47;96997.03;;;1.13;77.15
52591;BME280;38483;42.620;25.394;2023-02-05T03:08:21;96985.31;;;0.94;78.18
52591;BME280;38483;42.620;25.394;2023-02-05T03:13:28;96999.63;;;1.07;78.97
52591;BME280;38483;42.620;25.394;2023-02-05T03:15:59;97010.56;;;1.18;79.84
52591;BME280;38483;42.620;25.394;2023-02-05T03:18:26;97002.97;;;1.12;79.13
52591;BME280;38483;42.620;25.394;2023-02-05T03:21:04;96988.69;;;0.94;77.79
52591;BME280;38483;42.620;25.394;2023-02-05T03:23:34;97004.75;;;1.02;77.82
52591;BME280;38483;42.620;25.394;2023-02-05T03:26:01;97001.41;;;0.99;76.31
52591;BME280;38483;42.620;25.394;2023-02-05T03:28:37;97019.19;;;1.03;75.59
52591;BME280;38483;42.620;25.394;2023-02-05T03:31:10;97025.38;;;0.78;71.86
52591;BME280;38483;42.620;25.394;2023-02-05T03:36:57;97033.06;;;0.72;69.84
52591;BME280;38483;42.620;25.394;2023-02-05T03:43:12;97053.50;;;0.60;68.53
52591;BME280;38483;42.620;25.394;2023-02-05T03:51:47;97043.44;;;0.46;69.84
52591;BME280;38483;42.620;25.394;2023-02-05T03:59:32;97075.72;;;0.43;69.26
52591;BME280;38483;42.620;25.394;2023-02-05T04:02:01;97074.03;;;0.42;68.63
52591;BME280;38483;42.620;25.394;2023-02-05T04:04:35;97078.38;;;0.26;69.13
52591;BME280;38483;42.620;25.394;2023-02-05T04:07:03;97091.94;;;0.25;68.59
52591;BME280;38483;42.620;25.394;2023-02-05T04:09:31;97093.69;;;0.20;70.24
52591;BME280;38483;42.620;25.394;2023-02-05T04:11:58;97096.22;;;0.20;69.64
52591;BME280;38483;42.620;25.394;2023-02-05T04:14:25;97097.84;;;0.35;70.35
52591;BME280;38483;42.620;25.394;2023-02-05T04:16:52;97077.56;;;0.15;71.04
52591;BME280;38483;42.620;25.394;2023-02-05T04:19:21;97103.75;;;0.35;72.74
52591;BME280;38483;42.620;25.394;2023-02-05T04:21:50;97109.78;;;0.27;73.28
52591;BME280;38483;42.620;25.394;2023-02-05T04:24:18;97098.69;;;0.37;75.26
52591;BME280;38483;42.620;25.394;2023-02-05T04:26:45;97097.00;;;0.31;76.54
52591;BME280;38483;42.620;25.394;2023-02-05T04:29:13;97096.94;;;0.42;77.00
52591;BME280;38483;42.620;25.394;2023-02-05T04:31:44;97094.41;;;0.45;77.73
52591;BME280;38483;42.620;25.394;2023-02-05T04:34:12;97096.16;;;0.31;77.01
52591;BME280;38483;42.620;25.394;2023-02-05T04:36:39;97115.69;;;0.29;73.57
52591;BME280;38483;42.620;25.394;2023-02-05T04:39:07;97119.97;;;0.15;72.88
52591;BME280;38483;42.620;25.394;2023-02-05T04:41:33;97122.59;;;-0.01;71.68
52591;BME280;38483;42.620;25.394;2023-02-05T04:44:00;97120.09;;;-0.07;71.07
52591;BME280;38483;42.620;25.394;2023-02-05T04:46:27;97126.03;;;-0.15;72.70
52591;BME280;38483;42.620;25.394;2023-02-05T04:48:54;97135.41;;;-0.19;70.30
52591;BME280;38483;42.620;25.394;2023-02-05T04:51:21;97135.44;;;-0.40;70.99
52591;BME280;38483;42.620;25.394;2023-02-05T04:53:48;97146.47;;;-0.44;70.65
52591;BME280;38483;42.620;25.394;2023-02-05T04:56:16;97142.22;;;-0.57;68.74
52591;BME280;38483;42.620;25.394;2023-02-05T04:58:43;97127.81;;;-0.53;68.44
52591;BME280;38483;42.620;25.394;2023-02-05T05:01:13;97160.91;;;-0.58;68.59
52591;BME280;38483;42.620;25.394;2023-02-05T05:03:41;97170.19;;;-0.51;68.68
52591;BME280;38483;42.620;25.394;2023-02-05T05:06:09;97153.25;;;-0.50;67.71
52591;BME280;38483;42.620;25.394;2023-02-05T05:08:37;97182.91;;;-0.49;65.33
52591;BME280;38483;42.620;25.394;2023-02-05T05:11:12;97188.84;;;-0.76;65.56
52591;BME280;38483;42.620;25.394;2023-02-05T05:13:40;97171.88;;;-0.74;67.09
52591;BME280;38483;42.620;25.394;2023-02-05T05:16:08;97176.97;;;-0.59;67.46
52591;BME280;38483;42.620;25.394;2023-02-05T05:18:37;97178.69;;;-0.74;66.74
52591;BME280;38483;42.620;25.394;2023-02-05T05:21:04;97167.66;;;-0.64;67.59
52591;BME280;38483;42.620;25.394;2023-02-05T05:23:32;97193.94;;;-0.29;68.63
52591;BME280;38483;42.620;25.394;2023-02-05T05:26:03;97199.00;;;-0.37;68.17
52591;BME280;38483;42.620;25.394;2023-02-05T05:28:31;97203.28;;;-0.48;67.40
52591;BME280;38483;42.620;25.394;2023-02-05T05:31:09;97215.94;;;-0.72;68.17
52591;BME280;38483;42.620;25.394;2023-02-05T05:33:37;97225.28;;;-0.83;69.73
52591;BME280;38483;42.620;25.394;2023-02-05T05:36:05;97228.69;;;-0.75;69.98
52591;BME280;38483;42.620;25.394;2023-02-05T05:38:32;97215.97;;;-0.67;71.64
52591;BME280;38483;42.620;25.394;2023-02-05T05:40:59;97225.31;;;-0.50;72.90
52591;BME280;38483;42.620;25.394;2023-02-05T05:43:45;97214.28;;;-0.40;75.42
52591;BME280;38483;42.620;25.394;2023-02-05T05:46:17;97226.13;;;-0.22;76.69
52591;BME280;38483;42.620;25.394;2023-02-05T05:48:53;97221.06;;;-0.25;76.19
52591;BME280;38483;42.620;25.394;2023-02-05T05:51:22;97206.63;;;-0.47;77.77
52591;BME280;38483;42.620;25.394;2023-02-05T05:53:51;97214.28;;;-0.28;76.92
52591;BME280;38483;42.620;25.394;2023-02-05T05:56:18;97240.53;;;-0.29;75.01
52591;BME280;38483;42.620;25.394;2023-02-05T05:58:46;97241.38;;;-0.16;74.47
52591;BME280;38483;42.620;25.394;2023-02-05T06:01:14;97236.31;;;-0.33;73.44
52591;BME280;38483;42.620;25.394;2023-02-05T06:03:41;97238.00;;;-0.45;71.35
52591;BME280;38483;42.620;25.394;2023-02-05T06:06:09;97240.56;;;-0.39;71.95
52591;BME280;38483;42.620;25.394;2023-02-05T06:08:37;97260.03;;;-0.71;66.62
52591;BME280;38483;42.620;25.394;2023-02-05T06:11:04;97258.28;;;-0.98;66.65
52591;BME280;38483;42.620;25.394;2023-02-05T06:13:32;97269.28;;;-1.05;64.45
52591;BME280;38483;42.620;25.394;2023-02-05T06:16:00;97256.56;;;-1.10;64.52
52591;BME280;38483;42.620;25.394;2023-02-05T06:18:27;97259.13;;;-1.02;61.70
52591;BME280;38483;42.620;25.394;2023-02-05T06:20:55;97257.44;;;-0.94;63.29
52591;BME280;38483;42.620;25.394;2023-02-05T06:23:22;97251.53;;;-0.92;64.79
52591;BME280;38483;42.620;25.394;2023-02-05T06:25:49;97257.47;;;-0.85;63.20
52591;BME280;38483;42.620;25.394;2023-02-05T06:28:16;97264.28;;;-0.63;62.53
52591;BME280;38483;42.620;25.394;2023-02-05T06:30:43;97282.97;;;-0.40;63.87
52591;BME280;38483;42.620;25.394;2023-02-05T06:33:10;97288.06;;;-0.28;62.69
52591;BME280;38483;42.620;25.394;2023-02-05T06:35:39;97285.50;;;-0.13;62.98
52591;BME280;38483;42.620;25.394;2023-02-05T06:38:07;97266.84;;;-0.12;65.70
52591;BME280;38483;42.620;25.394;2023-02-05T06:40:34;97286.34;;;-0.26;66.59
52591;BME280;38483;42.620;25.394;2023-02-05T06:43:01;97281.25;;;-0.09;66.47
52591;BME280;38483;42.620;25.394;2023-02-05T06:45:29;97283.78;;;0.09;67.73
52591;BME280;38483;42.620;25.394;2023-02-05T06:47:56;97291.41;;;0.26;66.70
52591;BME280;38483;42.620;25.394;2023-02-05T06:50:24;97282.91;;;0.30;67.51
52591;BME280;38483;42.620;25.394;2023-02-05T06:52:51;97278.63;;;0.38;67.35
52591;BME280;38483;42.620;25.394;2023-02-05T06:55:18;97287.09;;;0.53;65.93
52591;BME280;38483;42.620;25.394;2023-02-05T06:57:45;97274.44;;;0.22;66.51
52591;BME280;38483;42.620;25.394;2023-02-05T07:00:13;97299.03;;;0.30;66.46
52591;BME280;38483;42.620;25.394;2023-02-05T07:02:40;97310.91;;;0.25;65.42
52591;BME280;38483;42.620;25.394;2023-02-05T07:05:08;97307.56;;;-0.30;60.05
52591;BME280;38483;42.620;25.394;2023-02-05T07:07:35;97311.78;;;-0.26;60.16
52591;BME280;38483;42.620;25.394;2023-02-05T07:10:02;97325.38;;;-0.21;61.08
52591;BME280;38483;42.620;25.394;2023-02-05T07:12:30;97328.75;;;-0.25;59.80
52591;BME280;38483;42.620;25.394;2023-02-05T07:14:57;97316.88;;;-0.18;60.74
52591;BME280;38483;42.620;25.394;2023-02-05T07:17:24;97333.00;;;-0.19;61.28
52591;BME280;38483;42.620;25.394;2023-02-05T07:19:51;97332.91;;;-0.67;62.95
52591;BME280;38483;42.620;25.394;2023-02-05T07:22:18;97327.00;;;-0.57;66.93
52591;BME280;38483;42.620;25.394;2023-02-05T07:24:45;97327.88;;;-0.46;65.45
52591;BME280;38483;42.620;25.394;2023-02-05T07:27:12;97316.03;;;-0.40;64.24
52591;BME280;38483;42.620;25.394;2023-02-05T07:29:39;97278.72;;;-0.42;62.33
52591;BME280;38483;42.620;25.394;2023-02-05T07:32:06;97328.72;;;-0.49;60.07
52591;BME280;38483;42.620;25.394;2023-02-05T07:34:34;97326.19;;;-0.50;62.32
52591;BME280;38483;42.620;25.394;2023-02-05T07:37:01;97316.84;;;-0.41;60.11
52591;BME280;38483;42.620;25.394;2023-02-05T07:39:28;97331.25;;;-0.53;62.75
52591;BME280;38483;42.620;25.394;2023-02-05T07:41:55;97333.84;;;-0.28;63.80
52591;BME280;38483;42.620;25.394;2023-02-05T07:44:30;97333.84;;;-0.10;63.04
52591;BME280;38483;42.620;25.394;2023-02-05T07:46:57;97328.78;;;-0.07;62.80
52591;BME280;38483;42.620;25.394;2023-02-05T07:49:25;97328.75;;;0.27;63.21
52591;BME280;38483;42.620;25.394;2023-02-05T07:51:55;97323.66;;;-0.04;60.16
52591;BME280;38483;42.620;25.394;2023-02-05T07:54:22;97327.00;;;-0.59;58.83
52591;BME280;38483;42.620;25.394;2023-02-05T07:56:53;97338.81;;;-0.76;59.15
52591;BME280;38483;42.620;25.394;2023-02-05T07:59:21;97325.25;;;-0.81;59.42
52591;BME280;38483;42.620;25.394;2023-02-05T08:01:48;97309.22;;;-0.60;58.14
52591;BME280;38483;42.620;25.394;2023-02-05T08:04:15;97313.41;;;-0.79;59.05
52591;BME280;38483;42.620;25.394;2023-02-05T08:06:42;97326.06;;;-0.88;57.80
52591;BME280;38483;42.620;25.394;2023-02-05T08:09:10;97270.09;;;-1.18;58.10
52591;BME280;38483;42.620;25.394;2023-02-05T08:11:37;97323.59;;;-0.73;58.71
52591;BME280;38483;42.620;25.394;2023-02-05T08:14:04;97308.28;;;-0.97;57.23
52591;BME280;38483;42.620;25.394;2023-02-05T08:16:31;97311.72;;;-0.85;58.81
52591;BME280;38483;42.620;25.394;2023-02-05T08:18:58;97313.34;;;-1.00;57.49
52591;BME280;38483;42.620;25.394;2023-02-05T08:21:25;97328.63;;;-0.91;59.49
52591;BME280;38483;42.620;25.394;2023-02-05T08:23:53;97323.56;;;-0.84;58.76
52591;BME280;38483;42.620;25.394;2023-02-05T08:26:22;97321.00;;;-0.84;56.20
52591;BME280;38483;42.620;25.394;2023-02-05T08:28:49;97357.44;;;-0.80;56.38
52591;BME280;38483;42.620;25.394;2023-02-05T08:31:17;97299.84;;;-0.66;56.27
52591;BME280;38483;42.620;25.394;2023-02-05T08:33:44;97350.81;;;-0.18;56.99
52591;BME280;38483;42.620;25.394;2023-02-05T08:36:13;97338.09;;;0.10;55.47
52591;BME280;38483;42.620;25.394;2023-02-05T08:38:40;97343.22;;;0.02;55.86
52591;BME280;38483;42.620;25.394;2023-02-05T08:41:09;97330.41;;;0.40;55.70
52591;BME280;38483;42.620;25.394;2023-02-05T08:43:43;97331.25;;;0.57;56.10
52591;BME280;38483;42.620;25.394;2023-02-05T08:46:12;97333.84;;;0.34;56.11
52591;BME280;38483;42.620;25.394;2023-02-05T08:48:40;97342.28;;;0.53;57.39
52591;BME280;38483;42.620;25.394;2023-02-05T08:51:11;97329.59;;;-0.02;54.63
52591;BME280;38483;42.620;25.394;2023-02-05T08:53:39;97356.75;;;0.09;54.34
52591;BME280;38483;42.620;25.394;2023-02-05T08:56:07;97377.13;;;0.31;55.13
52591;BME280;38483;42.620;25.394;2023-02-05T08:58:37;97357.59;;;-0.02;55.61
52591;BME280;38483;42.620;25.394;2023-02-05T09:01:11;97350.81;;;-0.10;53.41
52591;BME280;38483;42.620;25.394;2023-02-05T09:03:38;97333.88;;;-0.07;54.75
52591;BME280;38483;42.620;25.394;2023-02-05T09:06:07;97369.50;;;0.13;54.67
52591;BME280;38483;42.620;25.394;2023-02-05T09:08:35;97372.88;;;-0.02;54.34
52591;BME280;38483;42.620;25.394;2023-02-05T09:11:03;97384.75;;;0.01;53.94
52591;BME280;38483;42.620;25.394;2023-02-05T09:13:31;97358.47;;;0.22;52.09
52591;BME280;38483;42.620;25.394;2023-02-05T09:15:58;97365.25;;;0.32;52.85
52591;BME280;38483;42.620;25.394;2023-02-05T09:18:26;97384.75;;;-0.02;53.39
52591;BME280;38483;42.620;25.394;2023-02-05T09:20:53;97338.94;;;-0.04;53.76
52591;BME280;38483;42.620;25.394;2023-02-05T09:23:20;97345.75;;;0.14;52.72
52591;BME280;38483;42.620;25.394;2023-02-05T09:25:48;97378.81;;;0.13;52.50
52591;BME280;38483;42.620;25.394;2023-02-05T09:28:18;97360.94;;;-0.39;52.93
52591;BME280;38483;42.620;25.394;2023-02-05T09:30:53;97373.69;;;-0.42;53.66
52591;BME280;38483;42.620;25.394;2023-02-05T09:33:21;97388.16;;;0.05;54.33
52591;BME280;38483;42.620;25.394;2023-02-05T09:35:48;97353.31;;;-0.51;50.53
52591;BME280;38483;42.620;25.394;2023-02-05T09:38:15;97356.69;;;-0.53;51.94
52591;BME280;38483;42.620;25.394;2023-02-05T09:40:53;97315.13;;;-0.66;52.75
52591;BME280;38483;42.620;25.394;2023-02-05T09:43:41;97366.84;;;-0.55;51.17
52591;BME280;38483;42.620;25.394;2023-02-05T09:46:30;97372.00;;;-0.08;50.13
52591;BME280;38483;42.620;25.394;2023-02-05T09:49:10;97349.94;;;-0.50;50.53
52591;BME280;38483;42.620;25.394;2023-02-05T09:51:43;97379.56;;;-0.55;50.41
52591;BME280;38483;42.620;25.394;2023-02-05T09:54:21;97369.47;;;-0.28;50.78
52591;BME280;38483;42.620;25.394;2023-02-05T09:56:55;97380.47;;;-0.29;51.01
52591;BME280;38483;42.620;25.394;2023-02-05T09:59:25;97368.66;;;0.14;51.35
52591;BME280;38483;42.620;25.394;2023-02-05T10:01:58;97355.88;;;0.55;51.73
52591;BME280;38483;42.620;25.394;2023-02-05T10:04:26;97347.25;;;1.01;51.87
52591;BME280;38483;42.620;25.394;2023-02-05T10:07:23;97359.84;;;1.34;50.88
52591;BME280;38483;42.620;25.394;2023-02-05T10:12:56;97352.97;;;1.54;49.23
52591;BME280;38483;42.620;25.394;2023-02-05T10:18:42;97362.88;;;1.98;48.65
52591;BME280;38483;42.620;25.394;2023-02-05T10:24:19;97377.34;;;1.96;48.30
52591;BME280;38483;42.620;25.394;2023-02-05T10:26:52;97380.81;;;1.89;49.79
52591;BME280;38483;42.620;25.394;2023-02-05T10:32:08;97379.03;;;2.02;51.13
52591;BME280;38483;42.620;25.394;2023-02-05T10:37:36;97367.91;;;2.07;51.04
52591;BME280;38483;42.620;25.394;2023-02-05T10:40:18;97374.88;;;1.89;51.16
52591;BME280;38483;42.620;25.394;2023-02-05T10:45:29;97370.78;;;1.62;50.60
52591;BME280;38483;42.620;25.394;2023-02-05T10:53:39;97368.13;;;1.76;51.45
52591;BME280;38483;42.620;25.394;2023-02-05T10:56:07;97370.63;;;1.85;50.27
52591;BME280;38483;42.620;25.394;2023-02-05T10:58:44;97379.19;;;1.76;50.65
52591;BME280;38483;42.620;25.394;2023-02-05T11:01:19;97393.59;;;1.86;49.50
52591;BME280;38483;42.620;25.394;2023-02-05T11:04:00;97390.94;;;2.06;49.77
52591;BME280;38483;42.620;25.394;2023-02-05T11:06:30;97390.06;;;2.02;50.34
52591;BME280;38483;42.620;25.394;2023-02-05T11:08:58;97384.16;;;2.02;50.62
52591;BME280;38483;42.620;25.394;2023-02-05T11:11:30;97393.47;;;2.04;50.45
52591;BME280;38483;42.620;25.394;2023-02-05T11:14:04;97387.53;;;2.01;51.89
52591;BME280;38483;42.620;25.394;2023-02-05T11:16:37;97392.50;;;2.19;52.94
52591;BME280;38483;42.620;25.394;2023-02-05T11:19:20;97395.94;;;2.18;50.85
52591;BME280;38483;42.620;25.394;2023-02-05T11:21:52;97386.63;;;2.11;50.67
52591;BME280;38483;42.620;25.394;2023-02-05T11:29:39;97398.72;;;1.85;51.28
52591;BME280;38483;42.620;25.394;2023-02-05T11:32:38;97403.78;;;1.91;50.61
52591;BME280;38483;42.620;25.394;2023-02-05T11:35:09;97408.06;;;1.89;51.29
52591;BME280;38483;42.620;25.394;2023-02-05T11:37:41;97399.56;;;1.85;52.33
52591;BME280;38483;42.620;25.394;2023-02-05T11:40:28;97391.06;;;1.85;52.58
52591;BME280;38483;42.620;25.394;2023-02-05T11:45:29;97401.38;;;1.68;51.95
52591;BME280;38483;42.620;25.394;2023-02-05T11:48:00;97409.25;;;1.21;50.37
52591;BME280;38483;42.620;25.394;2023-02-05T11:50:29;97399.09;;;0.96;51.37
52591;BME280;38483;42.620;25.394;2023-02-05T11:53:15;97398.25;;;0.94;52.67
52591;BME280;38483;42.620;25.394;2023-02-05T11:55:52;97397.44;;;0.79;53.11
52591;BME280;38483;42.620;25.394;2023-02-05T11:58:27;97406.00;;;0.47;54.95
52591;BME280;38483;42.620;25.394;2023-02-05T12:01:21;97398.31;;;0.74;54.26
52591;BME280;38483;42.620;25.394;2023-02-05T12:04:02;97410.94;;;1.21;52.28
52591;BME280;38483;42.620;25.394;2023-02-05T12:09:04;97406.81;;;0.41;53.22
52591;BME280;38483;42.620;25.394;2023-02-05T12:15:38;97410.13;;;1.13;52.48
52591;BME280;38483;42.620;25.394;2023-02-05T12:20:33;97415.09;;;1.41;52.91
52591;BME280;38483;42.620;25.394;2023-02-05T12:25:52;97424.25;;;1.82;51.15
52591;BME280;38483;42.620;25.394;2023-02-05T12:28:36;97425.31;;;1.37;53.52
52591;BME280;38483;42.620;25.394;2023-02-05T12:34:15;97434.00;;;0.69;51.95
52591;BME280;38483;42.620;25.394;2023-02-05T12:37:06;97425.50;;;0.72;51.56
52591;BME280;38483;42.620;25.394;2023-02-05T12:58:26;97427.13;;;1.06;50.84
52591;BME280;38483;42.620;25.394;2023-02-05T13:01:03;97425.50;;;0.75;49.88
52591;BME280;38483;42.620;25.394;2023-02-05T13:03:40;97414.41;;;0.85;49.89
52591;BME280;38483;42.620;25.394;2023-02-05T13:06:18;97427.06;;;1.27;50.90
52591;BME280;38483;42.620;25.394;2023-02-05T13:08:50;97428.75;;;1.31;50.20
52591;BME280;38483;42.620;25.394;2023-02-05T13:11:33;97416.84;;;1.30;49.79
52591;BME280;38483;42.620;25.394;2023-02-05T13:14:24;97432.16;;;1.30;48.17
52591;BME280;38483;42.620;25.394;2023-02-05T13:16:56;97432.22;;;1.11;49.41
52591;BME280;38483;42.620;25.394;2023-02-05T13:19:36;97427.97;;;1.07;49.79
52591;BME280;38483;42.620;25.394;2023-02-05T13:22:23;97427.16;;;0.91;50.84
52591;BME280;38483;42.620;25.394;2023-02-05T13:25:24;97416.09;;;0.95;50.86
52591;BME280;38483;42.620;25.394;2023-02-05T13:28:33;97413.50;;;1.12;50.80
52591;BME280;38483;42.620;25.394;2023-02-05T13:33:42;97423.78;;;0.83;49.72
52591;BME280;38483;42.620;25.394;2023-02-05T13:52:56;97425.50;;;0.15;50.83
52591;BME280;38483;42.620;25.394;2023-02-05T13:55:45;97430.59;;;0.37;51.27
52591;BME280;38483;42.620;25.394;2023-02-05T14:01:33;97411.91;;;0.46;50.61
52591;BME280;38483;42.620;25.394;2023-02-05T14:04:06;97421.28;;;0.29;52.22
52591;BME280;38483;42.620;25.394;2023-02-05T14:07:07;97422.97;;;0.37;52.02
52591;BME280;38483;42.620;25.394;2023-02-05T14:09:40;97413.63;;;0.21;52.52
52591;BME280;38483;42.620;25.394;2023-02-05T14:12:12;97435.69;;;0.30;53.81
52591;BME280;38483;42.620;25.394;2023-02-05T14:22:56;97427.22;;;0.16;54.54
52591;BME280;38483;42.620;25.394;2023-02-05T14:30:46;97418.72;;;0.14;53.80
52591;BME280;38483;42.620;25.394;2023-02-05T14:33:38;97427.19;;;-0.07;53.55
52591;BME280;38483;42.620;25.394;2023-02-05T14:38:44;97418.66;;;-0.20;53.56
52591;BME280;38483;42.620;25.394;2023-02-05T14:41:14;97411.03;;;-0.27;53.87
52591;BME280;38483;42.620;25.394;2023-02-05T14:43:43;97414.41;;;-0.31;54.06
52591;BME280;38483;42.620;25.394;2023-02-05T14:46:35;97427.16;;;-0.06;52.16
52591;BME280;38483;42.620;25.394;2023-02-05T14:49:08;97424.63;;;-0.04;52.51
52591;BME280;38483;42.620;25.394;2023-02-05T14:51:50;97415.22;;;-0.38;52.42
52591;BME280;38483;42.620;25.394;2023-02-05T14:54:21;97436.44;;;-0.36;52.70
52591;BME280;38483;42.620;25.394;2023-02-05T14:56:51;97442.34;;;-0.39;54.09
52591;BME280;38483;42.620;25.394;2023-02-05T14:59:34;97439.78;;;-0.46;52.64
52591;BME280;38483;42.620;25.394;2023-02-05T15:10:31;97438.91;;;-0.59;54.84
52591;BME280;38483;42.620;25.394;2023-02-05T15:13:11;97448.28;;;-0.46;55.05
52591;BME280;38483;42.620;25.394;2023-02-05T15:15:39;97453.34;;;-0.52;55.71
52591;BME280;38483;42.620;25.394;2023-02-05T15:18:27;97439.75;;;-0.60;55.38
52591;BME280;38483;42.620;25.394;2023-02-05T15:20:55;97444.88;;;-0.48;55.67
52591;BME280;38483;42.620;25.394;2023-02-05T15:23:44;97439.75;;;-0.55;55.61
52591;BME280;38483;42.620;25.394;2023-02-05T15:26:21;97447.28;;;-0.79;56.80
52591;BME280;38483;42.620;25.394;2023-02-05T15:29:11;97448.09;;;-0.82;56.29
52591;BME280;38483;42.620;25.394;2023-02-05T15:31:41;97442.25;;;-0.67;56.05
52591;BME280;38483;42.620;25.394;2023-02-05T15:37:24;97461.72;;;-0.71;55.43
52591;BME280;38483;42.620;25.394;2023-02-05T15:39:58;97465.19;;;-0.57;55.99
52591;BME280;38483;42.620;25.394;2023-02-05T15:42:33;97455.72;;;-0.82;56.68
52591;BME280;38483;42.620;25.394;2023-02-05T15:53:03;97476.00;;;-0.93;58.58